Weather Outlook 16th November 2019 (6pm)

A weakened low pressure area is slowly crossing the island chain with limited moisture. Daytime heating and light surface winds could result in isolated showers/thunderstorms during Sunday, but moisture is expected to converge across St. Vincent and the Grenadines (SVG) during Monday and scattered showers are likely by evening into Tuesday. 

Light (less than 10 km/h) and variable winds becoming calm at times should continue this weekend.

South-easterly light breeze is expected during Monday, gradually increasing to gentle and moderate (10 – 25 km/h) breeze by evening and becoming easterly during Tuesday. 

Slight (0.5 – 1.2 m) sea conditions with north-easterly swells are across our islands, rising slightly (1.0 – 1.5 m) Tuesday. Good visibility should continue for next few days.

Aviation WX

[Source: ADDS]
METAR
TVSA 052200Z 07007KT 9999 BKN018 27/24 Q1013 NOSIG =
TVSA 051700Z 0518/0618 08008KT 9999 SCT020
TAF
TVSA 051700Z 0518/0618 08008KT 9999 SCT020 =
SR / SS: 10:13 / 21:37 UTC (Sunrise Sunset 2019-12-05)